createdAt,value
2019-04-22T00:00:01.040Z,94.60
2019-04-22T00:03:03.618Z,94.70
2019-04-22T00:05:56.170Z,95.20
2019-04-22T00:08:29.546Z,95.40
2019-04-22T00:11:07.932Z,95.50
2019-04-22T00:13:40.183Z,95.40
2019-04-22T00:15:59.322Z,95.50
2019-04-22T00:18:46.837Z,95.60
2019-04-22T00:21:04.701Z,95.70
2019-04-22T00:23:39.204Z,95.90
2019-04-22T00:26:10.945Z,96.10
2019-04-22T00:28:43.764Z,96.10
2019-04-22T00:31:23.599Z,96.20
2019-04-22T00:33:57.696Z,96.30
2019-04-22T00:36:27.588Z,96.30
2019-04-22T00:38:58.447Z,96.30
2019-04-22T00:42:09.938Z,96.60
2019-04-22T00:44:46.679Z,96.50
2019-04-22T00:47:17.957Z,96.50
2019-04-22T00:52:16.710Z,96.60
2019-04-22T00:54:55.882Z,96.80
2019-04-22T00:57:21.815Z,96.80
2019-04-22T00:59:55.069Z,97.30
2019-04-22T01:02:27.744Z,97.10
2019-04-22T01:05:00.901Z,97.10
2019-04-22T01:07:30.809Z,97.20
2019-04-22T01:10:19.060Z,96.80
2019-04-22T01:13:04.795Z,96.80
2019-04-22T01:15:40.514Z,96.80
2019-04-22T01:18:09.319Z,96.80
2019-04-22T01:21:05.836Z,96.90
2019-04-22T01:23:19.253Z,96.70
2019-04-22T01:25:57.090Z,96.90
2019-04-22T01:28:23.814Z,96.90
2019-04-22T01:30:50.992Z,97.10
2019-04-22T01:33:21.544Z,97.40
2019-04-22T01:36:08.041Z,97.40
2019-04-22T01:38:45.379Z,97.40
2019-04-22T01:41:30.343Z,97.40
2019-04-22T01:44:00.304Z,97.60
2019-04-22T01:46:25.771Z,97.40
2019-04-22T01:48:47.717Z,97.60
2019-04-22T01:51:12.237Z,97.50
2019-04-22T01:53:51.347Z,97.50
2019-04-22T01:56:21.715Z,97.50
2019-04-22T01:58:44.328Z,97.70
2019-04-22T02:01:37.716Z,97.60
2019-04-22T02:04:00.913Z,97.50
2019-04-22T02:06:35.219Z,97.70
2019-04-22T02:09:09.457Z,97.60
2019-04-22T02:11:38.913Z,97.70
2019-04-22T02:14:04.673Z,98.00
2019-04-22T02:16:34.259Z,98.10
2019-04-22T02:19:11.640Z,98.30
2019-04-22T02:21:38.649Z,98.30
2019-04-22T02:24:05.285Z,98.30
2019-04-22T02:29:11.033Z,98.60
2019-04-22T02:31:48.962Z,98.80
2019-04-22T02:34:22.633Z,98.80
2019-04-22T02:37:10.614Z,98.70
2019-04-22T02:39:19.879Z,98.80
2019-04-22T02:41:56.797Z,99.00
2019-04-22T02:44:33.329Z,99.10
2019-04-22T02:47:11.935Z,99.30
2019-04-22T02:57:35.271Z,99.50
2019-04-22T02:59:58.382Z,99.80
2019-04-22T03:02:46.079Z,99.80
2019-04-22T03:05:07.529Z,99.90
2019-04-22T03:07:26.000Z,99.90
2019-04-22T03:09:59.442Z,99.90
2019-04-22T03:12:23.739Z,99.90
2019-04-22T03:14:56.307Z,99.90
2019-04-22T03:17:28.676Z,99.90
2019-04-22T03:20:41.990Z,99.90
2019-04-22T03:23:05.593Z,99.90
2019-04-22T03:25:51.548Z,99.90
2019-04-22T03:28:19.227Z,99.90
2019-04-22T03:31:03.525Z,99.90
2019-04-22T03:38:35.562Z,99.90
2019-04-22T03:41:01.339Z,99.90
2019-04-22T03:43:27.412Z,99.90
2019-04-22T03:46:03.833Z,99.90
2019-04-22T03:48:45.366Z,99.90
2019-04-22T03:51:18.304Z,99.90
2019-04-22T03:53:38.289Z,99.90
2019-04-22T03:56:18.494Z,99.90
2019-04-22T03:58:37.268Z,99.90
2019-04-22T04:01:18.735Z,99.90
2019-04-22T04:03:39.579Z,99.90
2019-04-22T04:06:05.375Z,99.90
2019-04-22T04:08:48.128Z,99.90
2019-04-22T04:11:16.396Z,99.60
2019-04-22T04:13:57.967Z,99.60
2019-04-22T04:16:12.538Z,99.50
2019-04-22T04:18:56.185Z,99.40
2019-04-22T04:21:26.708Z,99.80
2019-04-22T04:24:01.139Z,99.70
2019-04-22T04:26:26.719Z,99.90
2019-04-22T04:31:25.524Z,99.90
2019-04-22T04:33:48.354Z,99.90
2019-04-22T04:36:27.079Z,99.90
2019-04-22T04:41:26.800Z,99.90
2019-04-22T04:44:59.267Z,99.90
2019-04-22T04:49:34.674Z,99.90
2019-04-22T04:54:35.938Z,99.90
2019-04-22T04:57:07.241Z,99.90
2019-04-22T04:59:59.247Z,99.90
2019-04-22T05:02:10.388Z,99.90
2019-04-22T05:04:51.090Z,99.90
2019-04-22T05:07:18.764Z,99.70
2019-04-22T05:12:33.869Z,98.90
2019-04-22T05:14:36.851Z,98.20
2019-04-22T05:17:15.781Z,98.40
2019-04-22T05:20:05.259Z,97.60
2019-04-22T05:22:28.360Z,97.80
2019-04-22T05:24:59.806Z,96.80
2019-04-22T05:30:23.457Z,95.50
2019-04-22T05:32:38.530Z,93.80
2019-04-22T05:35:06.898Z,91.70
2019-04-22T05:37:43.253Z,89.60
2019-04-22T05:42:46.267Z,83.80
2019-04-22T05:45:41.167Z,80.20
2019-04-22T05:48:18.742Z,77.90
2019-04-22T05:51:01.036Z,75.50
2019-04-22T05:53:40.569Z,74.50
2019-04-22T05:58:58.625Z,71.10
2019-04-22T06:02:01.181Z,68.80
2019-04-22T06:04:51.794Z,66.90
2019-04-22T06:07:47.230Z,64.80
2019-04-22T06:16:30.829Z,62.40
2019-04-22T06:19:03.239Z,62.60
2019-04-22T06:21:35.600Z,60.60
2019-04-22T06:29:22.202Z,59.70
2019-04-22T06:32:11.807Z,61.60
2019-04-22T06:34:22.302Z,60.90
2019-04-22T06:36:53.943Z,60.60
2019-04-22T06:39:28.225Z,60.40
2019-04-22T06:42:06.820Z,59.60
2019-04-22T06:47:25.138Z,61.60
2019-04-22T06:58:29.045Z,63.30
2019-04-22T07:01:18.219Z,60.40
2019-04-22T07:03:56.945Z,61.80
2019-04-22T07:06:48.139Z,62.60
2019-04-22T07:12:26.057Z,62.60
2019-04-22T07:18:24.699Z,61.20
2019-04-22T07:21:01.391Z,61.10
2019-04-22T07:24:02.742Z,62.30
2019-04-22T07:27:08.445Z,61.20
2019-04-22T07:29:44.719Z,59.60
2019-04-22T07:32:53.611Z,59.80
2019-04-22T07:35:08.453Z,60.00
2019-04-22T07:40:38.922Z,59.40
2019-04-22T07:44:07.625Z,59.20
2019-04-22T07:52:52.161Z,60.40
2019-04-22T07:55:38.115Z,58.50
2019-04-22T07:58:43.539Z,58.80
2019-04-22T08:01:20.343Z,58.60
2019-04-22T08:04:53.763Z,59.30
2019-04-22T08:07:50.555Z,59.40
2019-04-22T08:10:16.689Z,59.40
2019-04-22T08:13:14.605Z,58.10
2019-04-22T08:16:38.586Z,57.90
2019-04-22T08:22:47.884Z,60.30
2019-04-22T08:25:31.531Z,59.90
2019-04-22T08:28:17.470Z,61.00
2019-04-22T08:31:26.300Z,60.40
2019-04-22T08:35:18.664Z,59.40
2019-04-22T08:40:56.132Z,60.00
2019-04-22T08:47:59.190Z,60.50
2019-04-22T08:50:39.815Z,60.20
2019-04-22T08:53:33.751Z,59.60
2019-04-22T08:56:25.470Z,60.10
2019-04-22T09:00:21.517Z,59.70
2019-04-22T09:02:49.566Z,60.60
2019-04-22T09:08:34.389Z,60.20
2019-04-22T09:14:37.818Z,59.60
2019-04-22T09:17:58.158Z,60.60
2019-04-22T09:24:06.868Z,59.00
2019-04-22T09:27:10.114Z,59.60
2019-04-22T09:29:58.484Z,60.10
2019-04-22T09:33:43.107Z,60.40
2019-04-22T09:47:19.199Z,59.60
2019-04-22T09:50:22.349Z,59.50
2019-04-22T09:53:08.400Z,58.40
2019-04-22T09:55:57.100Z,58.90
2019-04-22T09:58:57.015Z,58.10
2019-04-22T10:01:47.348Z,56.50
2019-04-22T10:04:27.625Z,56.50
2019-04-22T10:07:13.469Z,55.50
2019-04-22T10:12:19.353Z,54.20
2019-04-22T10:14:49.243Z,52.80
2019-04-22T10:17:32.157Z,51.50
2019-04-22T10:20:10.520Z,50.50
2019-04-22T10:23:20.212Z,50.60
2019-04-22T10:26:00.813Z,52.50
2019-04-22T10:28:39.701Z,53.60
2019-04-22T10:31:31.104Z,54.00
2019-04-22T10:37:18.410Z,54.80
2019-04-22T10:40:23.638Z,54.10
2019-04-22T10:43:48.533Z,54.30
2019-04-22T10:47:25.676Z,54.30
2019-04-22T10:50:06.730Z,53.10
2019-04-22T10:59:36.568Z,54.10
2019-04-22T11:08:50.216Z,53.20
2019-04-22T11:15:46.849Z,52.00
2019-04-22T11:22:07.737Z,49.60
2019-04-22T11:26:06.011Z,49.10
2019-04-22T11:29:19.545Z,48.70
2019-04-22T11:33:24.409Z,47.70
2019-04-22T11:40:04.650Z,47.50
2019-04-22T11:42:34.344Z,47.90
2019-04-22T11:46:01.213Z,47.90
2019-04-22T11:49:05.712Z,48.10
2019-04-22T11:51:56.862Z,47.60
2019-04-22T11:55:02.268Z,48.40
2019-04-22T11:58:21.932Z,48.00
2019-04-22T12:01:14.877Z,49.60
2019-04-22T12:03:55.883Z,48.80
2019-04-22T12:07:08.798Z,48.00
2019-04-22T12:10:18.964Z,48.60
2019-04-22T12:13:28.186Z,49.30
2019-04-22T12:16:27.382Z,49.40
2019-04-22T12:19:29.410Z,48.30
2019-04-22T12:22:13.256Z,48.00
2019-04-22T12:25:46.167Z,49.70
2019-04-22T12:32:11.653Z,49.40
2019-04-22T12:35:28.368Z,50.80
2019-04-22T12:38:24.312Z,49.70
2019-04-22T12:41:10.401Z,48.90
2019-04-22T12:46:48.065Z,48.10
2019-04-22T12:50:08.798Z,48.20
2019-04-22T12:56:37.598Z,49.30
2019-04-22T12:59:14.048Z,49.50
2019-04-22T13:01:58.614Z,48.70
2019-04-22T13:05:20.068Z,47.70
2019-04-22T13:11:14.476Z,46.90
2019-04-22T13:14:28.829Z,48.40
2019-04-22T13:17:46.254Z,48.90
2019-04-22T13:20:50.595Z,50.30
2019-04-22T13:24:07.077Z,52.00
2019-04-22T13:33:59.748Z,51.10
2019-04-22T13:37:34.927Z,52.80
2019-04-22T13:40:40.481Z,51.10
2019-04-22T13:48:38.422Z,50.50
2019-04-22T13:52:02.247Z,51.30
2019-04-22T13:58:04.129Z,49.50
2019-04-22T14:00:42.250Z,50.00
2019-04-22T14:03:35.310Z,49.20
2019-04-22T14:06:18.692Z,49.00
2019-04-22T14:12:15.441Z,48.30
2019-04-22T14:15:20.452Z,48.40
2019-04-22T14:18:16.903Z,48.50
2019-04-22T14:21:36.676Z,48.80
2019-04-22T14:24:38.665Z,48.80
2019-04-22T14:27:30.565Z,49.20
2019-04-22T14:30:04.680Z,48.40
2019-04-22T14:41:51.480Z,48.70
2019-04-22T14:45:13.415Z,49.00
2019-04-22T14:48:41.629Z,48.80
2019-04-22T14:51:46.420Z,47.60
2019-04-22T14:55:10.159Z,47.50
2019-04-22T14:57:59.141Z,48.30
2019-04-22T15:07:44.763Z,49.60
2019-04-22T15:10:58.107Z,49.70
2019-04-22T15:15:11.298Z,50.00
2019-04-22T15:17:20.775Z,49.90
2019-04-22T15:24:06.761Z,50.90
2019-04-22T15:36:13.991Z,52.10
2019-04-22T15:37:46.108Z,52.30
2019-04-22T15:41:12.785Z,51.50
2019-04-22T15:51:30.808Z,50.90
2019-04-22T15:58:48.023Z,50.70
2019-04-22T16:01:41.044Z,51.10
2019-04-22T16:04:34.696Z,50.40
2019-04-22T16:19:04.466Z,50.70
2019-04-22T16:22:03.061Z,50.70
2019-04-22T16:25:45.266Z,49.70
2019-04-22T16:28:33.458Z,49.80
2019-04-22T16:31:21.805Z,50.20
2019-04-22T16:34:04.632Z,50.20
2019-04-22T16:37:07.178Z,49.40
2019-04-22T16:40:18.610Z,49.40
2019-04-22T16:43:17.212Z,50.30
2019-04-22T16:45:59.408Z,49.60
2019-04-22T16:48:40.020Z,49.90
2019-04-22T16:51:16.223Z,50.70
2019-04-22T16:53:58.119Z,51.30
2019-04-22T16:56:48.079Z,51.10
2019-04-22T16:59:48.951Z,51.00
2019-04-22T17:02:43.381Z,51.80
2019-04-22T17:06:13.820Z,52.00
2019-04-22T17:08:51.000Z,52.80
2019-04-22T17:11:43.589Z,53.10
2019-04-22T17:15:03.875Z,53.40
2019-04-22T17:18:07.492Z,53.70
2019-04-22T17:21:08.521Z,53.80
2019-04-22T17:23:59.286Z,54.20
2019-04-22T17:26:46.420Z,54.50
2019-04-22T17:29:32.691Z,54.80
2019-04-22T17:32:54.573Z,55.30
2019-04-22T17:35:48.509Z,55.10
2019-04-22T17:38:44.029Z,55.60
2019-04-22T17:42:22.427Z,56.20
2019-04-22T17:46:32.274Z,56.30
2019-04-22T17:49:10.473Z,57.00
2019-04-22T17:51:55.068Z,57.30
2019-04-22T17:54:07.327Z,57.40
2019-04-22T17:56:48.639Z,57.90
2019-04-22T17:59:39.235Z,58.00
2019-04-22T18:02:06.455Z,58.00
2019-04-22T18:08:25.172Z,59.00
2019-04-22T18:11:07.917Z,59.30
2019-04-22T18:14:11.599Z,59.80
2019-04-22T18:19:51.813Z,60.50
2019-04-22T18:22:21.780Z,60.70
2019-04-22T18:28:15.098Z,61.30
2019-04-22T18:30:35.275Z,62.30
2019-04-22T18:34:09.784Z,62.40
2019-04-22T18:36:19.758Z,62.70
2019-04-22T18:39:04.615Z,63.10
2019-04-22T18:41:34.193Z,62.90
2019-04-22T18:44:08.322Z,63.40
2019-04-22T18:46:37.125Z,63.60
2019-04-22T18:49:11.315Z,63.50
2019-04-22T18:52:04.558Z,63.70
2019-04-22T18:54:45.701Z,64.00
2019-04-22T18:58:18.778Z,64.20
2019-04-22T19:01:01.875Z,64.40
2019-04-22T19:03:56.155Z,64.90
2019-04-22T19:10:53.543Z,65.20
2019-04-22T19:16:00.544Z,66.00
2019-04-22T19:18:31.867Z,66.40
2019-04-22T19:21:13.082Z,66.40
2019-04-22T19:23:51.998Z,66.50
2019-04-22T19:29:31.607Z,67.00
2019-04-22T19:33:46.246Z,67.20
2019-04-22T19:34:42.860Z,67.40
2019-04-22T19:51:24.312Z,68.90
2019-04-22T20:07:52.413Z,70.40
2019-04-22T20:10:51.085Z,70.60
2019-04-22T20:13:51.448Z,70.50
2019-04-22T20:16:10.088Z,70.70
2019-04-22T20:19:06.596Z,70.10
2019-04-22T20:21:35.141Z,70.50
2019-04-22T20:24:06.977Z,70.00
2019-04-22T20:29:58.055Z,68.70
2019-04-22T20:32:32.683Z,69.00
2019-04-22T20:35:07.431Z,68.40
2019-04-22T20:38:19.973Z,68.50
2019-04-22T20:40:54.987Z,69.30
2019-04-22T20:44:51.595Z,69.20
2019-04-22T20:47:26.533Z,69.30
2019-04-22T20:50:08.004Z,69.70
2019-04-22T20:52:50.246Z,69.80
2019-04-22T20:55:13.654Z,69.90
2019-04-22T20:58:18.018Z,70.20
2019-04-22T21:00:40.293Z,70.40
2019-04-22T21:03:07.294Z,70.90
2019-04-22T21:05:48.156Z,71.10
2019-04-22T21:08:30.465Z,71.40
2019-04-22T21:10:55.355Z,72.30
2019-04-22T21:13:26.117Z,71.90
2019-04-22T21:16:08.976Z,72.00
2019-04-22T21:18:51.624Z,72.30
2019-04-22T21:21:33.383Z,72.70
2019-04-22T21:23:58.352Z,72.90
2019-04-22T21:26:39.988Z,73.20
2019-04-22T21:29:12.982Z,73.20
2019-04-22T21:31:48.256Z,73.70
2019-04-22T21:34:55.465Z,74.00
2019-04-22T21:37:20.836Z,74.10
2019-04-22T21:39:47.949Z,74.20
2019-04-22T21:42:19.621Z,74.80
2019-04-22T21:44:47.780Z,75.20
2019-04-22T21:47:30.155Z,75.20
2019-04-22T21:50:18.315Z,75.50
2019-04-22T21:52:32.204Z,75.60
2019-04-22T21:55:13.115Z,76.00
2019-04-22T21:58:05.178Z,76.20
2019-04-22T22:03:10.405Z,76.90
2019-04-22T22:05:34.205Z,77.40
2019-04-22T22:08:33.705Z,77.60
2019-04-22T22:10:58.460Z,78.20
2019-04-22T22:13:31.640Z,78.60
2019-04-22T22:15:59.554Z,78.90
2019-04-22T22:18:27.613Z,79.20
2019-04-22T22:21:25.470Z,79.50
2019-04-22T22:23:39.461Z,79.70
2019-04-22T22:26:02.324Z,80.10
2019-04-22T22:31:22.217Z,80.50
2019-04-22T22:33:48.242Z,80.80
2019-04-22T22:36:34.057Z,80.80
2019-04-22T22:39:07.657Z,81.50
2019-04-22T22:41:30.139Z,81.40
2019-04-22T22:44:15.689Z,81.70
2019-04-22T22:47:09.701Z,81.80
2019-04-22T22:49:56.566Z,82.30
2019-04-22T22:53:17.084Z,82.30
2019-04-22T22:55:49.566Z,82.50
2019-04-22T22:58:16.392Z,82.70
2019-04-22T23:00:47.588Z,82.90
2019-04-22T23:03:40.576Z,82.80
2019-04-22T23:06:00.578Z,83.00
2019-04-22T23:08:26.487Z,83.50
2019-04-22T23:11:05.294Z,83.40
2019-04-22T23:13:33.498Z,83.40
2019-04-22T23:15:57.250Z,83.60
2019-04-22T23:18:12.157Z,83.80
2019-04-22T23:20:45.603Z,84.10
2019-04-22T23:23:35.607Z,84.40
2019-04-22T23:26:38.856Z,84.70
2019-04-22T23:29:18.373Z,84.60
2019-04-22T23:31:44.275Z,84.80
2019-04-22T23:34:26.549Z,85.10
2019-04-22T23:37:12.245Z,85.30
2019-04-22T23:39:53.383Z,85.50
2019-04-22T23:42:21.885Z,86.00
2019-04-22T23:44:50.195Z,86.30
2019-04-22T23:47:47.324Z,86.70
2019-04-22T23:50:32.253Z,87.00
2019-04-22T23:53:58.076Z,87.50
2019-04-22T23:56:17.203Z,87.90
